x

Canaveral 20 Nm East Of Cape Canaveral, Fl (41009) Weather Station

7:20am - Wed 1st Oct 2014 All times are EDT. -4 hours from GMT.

  • Wind
    7mph, 9mph gusts
  • Sea Temp 83°f
  • Air Temp 79°f
  • Sea Pressure 1012.3mb
  • Canaveral 20 Nm East Of Cape Canaveral, Fl
  • Canaveral 20 Nm East Of Cape Canaveral, Fl

More Historic Weather Station data

Upgrade to MSW Pro to gain access to the past 30 days of data for over 8000 Wavebouys and Weather Stations around the globe.

Join Pro

Comparision Forecast

View Surf forecast
   
Wed 10/01 7:20am  -   -   -  7 9 mph 1012.3mb 83f 79f
6:50am 3ft 8s 6s 7 9 mph 1011.9mb 83f 79f
6:20am  -   -   -  9 11 mph 1011.4mb 83f 79f
5:50am 3ft 8s 6s 9 11 mph 1011.2mb 83f 79f
4:50am 2.5ft 8s 5s 9
mph
1010.8mb 83f 79f
4:20am  -   -   -  9 11 mph 1010.7mb 83f 79f
3:50am 2.5ft 6s 5s 9 13 mph 1010.8mb 83f 79f
3:20am  -   -   -  9
mph
1011mb 83f 79f
2:50am 2.5ft 7s 5s 7 9 mph 1011mb 83f 79f
2:20am  -   -   -  7 9 mph 1011.1mb 83f 79f
1:50am 2.5ft 6s 5s 9
mph
1011.1mb 83f 79f
1:20am  -   -   -  7 9 mph 1011.1mb 83f 79f
12:50am 2.5ft 9s 5s 7 9 mph 1011.2mb 83f 79f
12:20am  -   -   -  7 9 mph 1011.1mb 83f 79f
Tue 09/30 11:50pm 2ft 8s 5s 7 9 mph 1011.1mb 83f 79f
11:20pm  -   -   -  4 7 mph 1011mb 83f 79f
10:50pm 1.6ft 8s 5s 7 9 mph 1010.9mb 83f 79f
10:20pm  -   -   -  7 9 mph 1011mb 83f 79f
9:50pm 1.6ft 9s 5s 7 9 mph 1011.2mb 83f 79f
9:20pm  -   -   -  2
mph
1011.2mb 83f 78f
8:50pm 1.6ft 8s 5s  -  2 mph 1011.3mb 83f 78f
8:20pm  -   -   -  2 4 mph 1011mb 83f 77f
7:50pm 1.6ft 8s 5s 7 16 mph 1010.8mb 83f 76f
6:50pm 1.6ft 8s 5s 4 7 mph 1009.9mb 83f 79f
6:20pm  -   -   -  4 7 mph 1009.8mb 83f 79f
5:50pm 1.6ft 9s 5s 4 7 mph 1010.1mb 83f 80f
5:20pm  -   -   -  4
mph
1009.9mb 83f 80f
4:50pm 1.6ft 9s 5s 7 9 mph 1009.8mb 83f 80f
4:20pm  -   -   -  4 7 mph 1009.8mb 83f 80f
3:50pm 1.6ft 8s 5s 7 9 mph 1009.8mb 83f 80f
3:20pm  -   -   -  9 11 mph 1009.6mb 83f 80f
2:50pm 2ft 8s 4s 7 9 mph 1009.7mb 83f 79f
2:20pm  -   -   -  9 11 mph 1009.8mb 83f 79f
1:50pm 2ft 8s 4s 11 13 mph 1010.3mb 83f 80f
1:20pm  -   -   -  9 11 mph 1010.7mb 83f 79f
12:50pm 2ft 9s 4s 11 13 mph 1010.8mb 83f 79f
12:20pm  -   -   -  11 13 mph 1011.1mb 83f 79f
11:50am 2ft 9s 4s 11 16 mph 1011.3mb 83f 79f
11:20am  -   -   -  13 16 mph 1011.2mb 83f 79f
10:50am 2.5ft 9s 4s 13 16 mph 1011.1mb 83f 79f
10:20am  -   -   -  16 18 mph 1011mb 83f 79f
9:50am 2.5ft 9s 4s 13 16 mph 1010.8mb 83f 79f
9:20am  -   -   -  16 18 mph 1010.7mb 83f 79f
8:50am 2.5ft 9s 4s 16 18 mph 1010.7mb 83f 78f
8:20am  -   -   -  16 20 mph 1010.6mb 83f 78f
7:50am 2.5ft 9s 4s 18 22 mph 1010.4mb 83f 78f
7:20am  -   -   -  18 20 mph 1010.3mb 83f 79f
6:50am 2.5ft 9s 4s 16 18 mph 1010.2mb 83f 79f
6:20am  -   -   -  16 18 mph 1009.8mb 83f 79f
5:50am 2.5ft 8s 5s 16 20 mph 1009.6mb 83f 79f
5:20am  -   -   -  16 18 mph 1009.4mb 83f 79f
4:50am 2ft 9s 5s 13 18 mph 1009.2mb 83f 79f
4:20am  -   -   -  11 16 mph 1009.4mb 83f 79f
3:50am 2.5ft 8s 6s 11 13 mph 1009.6mb 83f 79f
3:20am  -   -   -  9 11 mph 1009.9mb 83f 79f
2:50am 2.5ft 9s 6s 9 11 mph 1009.9mb 83f 79f
2:20am  -   -   -  9 11 mph 1010.1mb 83f 78f
1:50am 2.5ft 9s 6s 9 11 mph 1010.3mb 83f 78f
1:20am  -   -   -  9 11 mph 1010.6mb 83f 78f
12:50am 2.5ft 9s 6s 7
mph
1010.6mb 83f 78f
12:20am  -   -   -  4 7 mph 1010.9mb 83f 77f
Mon 09/29 11:50pm 2.5ft 8s 6s 4
mph
1011.2mb 83f 77f
11:20pm  -   -   -  2 4 mph 1011.3mb 83f 77f
10:50pm 2.5ft 8s 5s 2 4 mph 1011.5mb 83f 77f
10:20pm  -   -   -  2
mph
1011.7mb 83f 76f
9:50pm 2.5ft 9s 5s 4 7 mph 1011.4mb 83f 76f
9:20pm  -   -   -  7 11 mph 1011.7mb 83f 76f
8:50pm  -   -   -  7 9 mph 1012.2mb 83f 76f
6:50pm 3.5ft 10s 4s 18 22 mph 1010.7mb 83f 77f
6:20pm  -   -   -  27 34 mph 1010.4mb 83f 78f
5:50pm 2.5ft 8s 5s 16 20 mph 1010.1mb 83f 83f
5:20pm  -   -   -  11 13 mph 1010.6mb 83f 83f
4:50pm 2.5ft 8s 5s 11 13 mph 1010.4mb 83f 83f
4:20pm  -   -   -  9 11 mph 1010.2mb 83f 83f
3:50pm 3ft 10s 5s 11 16 mph 1010.4mb 83f 83f
3:20pm  -   -   -  13 16 mph 1010.3mb 83f 83f
2:50pm 2.5ft 8s 5s 13 16 mph 1010.6mb 83f 83f
2:20pm  -   -   -  11 13 mph 1011.3mb 84f 83f
1:50pm 2.5ft 10s 6s 11 13 mph 1011.5mb 84f 83f
1:20pm  -   -   -  11 13 mph 1012mb 84f 83f
12:50pm 2.5ft 9s 6s 9 11 mph 1012.5mb 83f 83f
12:20pm  -   -   -  9 11 mph 1013mb 83f 82f
11:50am 2.5ft 10s 6s 9 11 mph 1013mb 83f 83f
11:20am  -   -   -  9 11 mph 1013.1mb 83f 82f
10:50am 2.5ft 10s 6s 9 11 mph 1013.2mb 83f 82f
10:20am  -   -   -  7 9 mph 1013.4mb 83f 83f
9:50am 2.5ft 8s 6s 7 9 mph 1013.5mb 83f 82f
9:20am  -   -   -  4 7 mph 1013.7mb 83f 82f
8:50am 2.5ft 8s 6s 7 9 mph 1013.6mb 83f 82f
8:20am  -   -   -  7 9 mph 1013.5mb 83f 81f
7:50am 2.5ft 8s 6s 7
mph
1013.4mb 83f 82f
7:20am  -   -   -  13 18 mph 1013.3mb 83f 80f
6:50am 3ft 8s 6s 4 7 mph 1013.7mb 83f 81f
6:20am  -   -   -   -  mph 1013.5mb 83f 81f
5:50am 2.5ft 7s 6s 7 11 mph 1013.4mb 83f 82f
5:20am  -   -   -  7
mph
1013.1mb 83f 82f
4:50am 3.5ft 8s 6s 7
mph
1013.1mb 83f 82f
4:20am  -   -   -  7 9 mph 1013mb 83f 82f
3:50am 3ft 9s 6s 7 9 mph 1013mb 83f 82f
3:20am  -   -   -  7 9 mph 1013.3mb 83f 82f
2:50am 3ft 10s 6s 7 9 mph 1013.6mb 83f 83f
2:20am  -   -   -  9 11 mph 1013.8mb 83f 82f
1:50am 3ft 10s 6s 7 9 mph 1014.2mb 83f 82f
1:20am  -   -   -  13 18 mph 1014.5mb 83f 81f
12:50am 3ft 8s 6s 7 9 mph 1014.9mb 83f 82f
12:20am  -   -   -  7 9 mph 1015.1mb 83f 83f
Sun 09/28 11:50pm 3ft 9s 6s 7 9 mph 1015.2mb 83f 83f
11:20pm  -   -   -  9 11 mph 1015.4mb 83f 83f
10:50pm 3ft 9s 6s 9 11 mph 1015.3mb 83f 83f
10:20pm  -   -   -  9 11 mph 1015.5mb 83f 83f
9:50pm 3ft 8s 6s 9 11 mph 1015.4mb 83f 83f
9:20pm  -   -   -  9
mph
1015.2mb 83f 83f
8:50pm 3.5ft 8s 6s 9
mph
1015.1mb 83f 83f
8:20pm  -   -   -  7 9 mph 1014.9mb 83f 83f
7:50pm 3ft 8s 6s 9
mph
1014.7mb 83f 83f
7:20pm  -   -   -  9 11 mph 1014.6mb 83f 83f
6:50pm 3.5ft 8s 6s 9
mph
1014.3mb 83f 83f
6:20pm  -   -   -  9 11 mph 1014.2mb 83f 83f
5:50pm 3ft 8s 5s 9 13 mph 1014.2mb 83f 83f
5:20pm  -   -   -  9
mph
1014.3mb 83f 83f
4:50pm 3.5ft 8s 5s 9 11 mph 1014.2mb 83f 83f
4:20pm  -   -   -  9 11 mph 1014.4mb 84f 83f
3:50pm 3.5ft 8s 6s 11 13 mph 1014.4mb 84f 83f
3:20pm  -   -   -  9 11 mph 1014.8mb 84f 83f
2:50pm 3.5ft 8s 6s 9 11 mph 1015.2mb 83f 83f
2:20pm  -   -   -  4 7 mph 1015.6mb 83f 82f
1:50pm 3.5ft 8s 6s 9 11 mph 1015.9mb 83f 83f
1:20pm  -   -   -  9 11 mph 1016.4mb 83f 83f
12:50pm 3.5ft 8s 6s 9
mph
1016.6mb 83f 83f
12:20pm  -   -   -  9 11 mph 1016.7mb 83f 83f
11:50am 3.5ft 8s 6s 7
mph
1016.8mb 83f 82f
11:20am  -   -   -  9 11 mph 1016.9mb 83f 83f
10:50am 3.5ft 8s 6s 9 11 mph 1016.9mb 83f 83f
10:20am  -   -   -  11 13 mph 1016.8mb 83f 83f
9:50am 3ft 8s 6s 9 11 mph 1016.8mb 83f 83f
9:20am  -   -   -  7 9 mph 1016.8mb 83f 82f
8:50am 3ft 8s 5s 9 11 mph 1016.6mb 83f 82f
8:20am  -   -   -  9 11 mph 1016.5mb 83f 82f
7:50am 3.5ft 8s 6s 9 11 mph 1016.2mb 83f 83f
7:20am  -   -   -  9 11 mph 1016mb 83f 82f
6:50am 3.5ft 8s 6s 9 11 mph 1015.7mb 83f 82f
6:20am  -   -   -  9 11 mph 1015.5mb 82f 82f
5:50am 3.5ft 8s 6s 9 11 mph 1015.4mb 82f 82f
4:50am 3.5ft 7s 6s 9 11 mph 1015.3mb 83f 82f
4:20am  -   -   -  9
mph
1015.3mb 82f 82f
3:50am 3.5ft 8s 6s 9
mph
1015.4mb 82f 82f
3:20am  -   -   -  9
mph
1015.7mb 83f 82f
2:50am 3.5ft 8s 6s 9 11 mph 1015.9mb 83f 83f
2:20am  -   -   -  9 13 mph 1016.2mb 83f 83f
1:50am 3.5ft 8s 6s 4 9 mph 1016.4mb 82f 81f
1:20am  -   -   -  2 4 mph 1016.6mb 82f 82f
12:50am 3.5ft 8s 6s 9 11 mph 1016.6mb 82f 81f
Sat 09/27 11:50pm 3.5ft 8s 5s 9 11 mph 1016.8mb 82f 83f
11:20pm  -   -   -  11 13 mph 1016.7mb 83f 83f
10:50pm 3.5ft 8s 5s 11 16 mph 1016.6mb 83f 83f
10:20pm  -   -   -  13 16 mph 1016.4mb 83f 83f
9:50pm 3.5ft 8s 6s 11 13 mph 1016.3mb 83f 83f
9:20pm  -   -   -  4 7 mph 1016.1mb 83f 82f
8:50pm 4ft 8s 6s 7 9 mph 1016mb 83f 81f
8:20pm  -   -   -  11 16 mph 1015.8mb 83f 81f
7:50pm 3.5ft 9s 5s 11 13 mph 1015.7mb 83f 83f
7:20pm  -   -   -  11 13 mph 1015.5mb 83f 83f
6:50pm 3.5ft 7s 5s 9 11 mph 1015.5mb 83f 83f
6:20pm  -   -   -  11 13 mph 1015.2mb 83f 83f
5:50pm 3.5ft 8s 6s 9 11 mph 1015.1mb 83f 83f
5:20pm  -   -   -  9 11 mph 1015mb 83f 83f
4:50pm 4ft 8s 6s 9 11 mph 1014.9mb 83f 83f
4:20pm  -   -   -  9 11 mph 1015.2mb 83f 83f
3:50pm 4.5ft 8s 6s 9 11 mph 1015.2mb 83f 83f
3:20pm  -   -   -  9 11 mph 1015.4mb 83f 84f
2:50pm 3.5ft 8s 6s 9 11 mph 1015.8mb 83f 83f
2:20pm  -   -   -  7 9 mph 1016.1mb 83f 83f
1:50pm 3.5ft 8s 5s 9 11 mph 1016.2mb 83f 83f
1:20pm  -   -   -  11 13 mph 1016.5mb 83f 83f
12:50pm 4ft 8s 6s 9 11 mph 1016.6mb 83f 83f